createdAt,value
2023-07-16T00:02:40.059Z,97901.34
2023-07-16T00:07:43.556Z,97903.03
2023-07-16T00:12:48.847Z,97865.41
2023-07-16T00:17:52.398Z,97920.25
2023-07-16T00:22:56.458Z,97830.47
2023-07-16T00:28:01.303Z,97870.84
2023-07-16T00:33:04.897Z,97920.00
2023-07-16T00:38:08.340Z,97857.47
2023-07-16T00:43:13.222Z,97919.47
2023-07-16T00:48:18.000Z,97892.69
2023-07-16T00:53:22.736Z,97831.28
2023-07-16T00:58:28.015Z,97798.78
2023-07-16T01:03:32.397Z,97880.97
2023-07-16T01:08:43.327Z,97960.16
2023-07-16T01:13:49.051Z,97688.50
2023-07-16T01:18:53.026Z,97745.81
2023-07-16T01:24:05.879Z,97912.38
2023-07-16T01:29:28.661Z,97975.16
2023-07-16T01:34:34.827Z,97988.84
2023-07-16T01:39:38.741Z,97994.84
2023-07-16T01:44:43.636Z,97917.25
2023-07-16T01:49:47.973Z,97949.25
2023-07-16T01:54:51.560Z,97968.63
2023-07-16T02:00:00.052Z,97970.28
2023-07-16T02:05:03.563Z,97936.88
2023-07-16T02:10:07.874Z,97974.59
2023-07-16T02:15:12.973Z,97957.09
2023-07-16T02:20:16.379Z,98007.91
2023-07-16T02:25:20.013Z,97970.75
2023-07-16T02:30:26.419Z,97952.19
2023-07-16T02:35:29.956Z,98025.41
2023-07-16T02:40:33.389Z,98014.16
2023-07-16T02:45:41.367Z,97959.53
2023-07-16T02:50:44.909Z,98005.97
2023-07-16T02:55:48.668Z,98018.22
2023-07-16T03:00:53.501Z,97965.72
2023-07-16T03:05:57.180Z,97942.16
2023-07-16T03:11:01.323Z,97954.41
2023-07-16T03:16:06.537Z,98035.03
2023-07-16T03:21:10.080Z,98042.13
2023-07-16T03:26:14.241Z,97993.34
2023-07-16T03:31:19.703Z,98036.63
2023-07-16T03:36:26.327Z,98046.41
2023-07-16T03:41:29.742Z,98077.47
2023-07-16T03:46:34.640Z,98030.44
2023-07-16T03:51:39.201Z,98072.25
2023-07-16T03:56:42.812Z,98098.97
2023-07-16T04:01:47.732Z,98114.25
2023-07-16T04:06:51.222Z,98131.13
2023-07-16T04:11:54.590Z,98113.81
2023-07-16T04:16:59.558Z,98145.56
2023-07-16T04:22:03.258Z,98096.78
2023-07-16T04:27:07.589Z,98053.69
2023-07-16T04:32:12.591Z,97773.44
2023-07-16T04:37:16.089Z,98120.22
2023-07-16T04:42:19.647Z,98164.13
2023-07-16T04:47:24.500Z,98166.84
2023-07-16T04:52:27.978Z,98167.91
2023-07-16T04:57:31.565Z,98164.75
2023-07-16T05:02:36.501Z,98020.16
2023-07-16T05:07:39.950Z,98145.31
2023-07-16T05:12:43.554Z,98183.66
2023-07-16T05:17:48.702Z,98130.22
2023-07-16T05:22:53.169Z,98130.50
2023-07-16T05:27:56.939Z,98155.75
2023-07-16T05:33:01.774Z,98195.16
2023-07-16T05:38:05.319Z,98151.50
2023-07-16T05:43:08.806Z,98210.16
2023-07-16T05:48:13.774Z,98205.03
2023-07-16T05:53:17.314Z,98139.78
2023-07-16T05:58:20.907Z,98225.41
2023-07-16T06:03:25.818Z,97945.28
2023-07-16T06:08:29.248Z,98161.84
2023-07-16T06:13:32.687Z,98183.94
2023-07-16T06:18:37.625Z,98206.88
2023-07-16T06:23:44.728Z,98086.22
2023-07-16T06:28:50.364Z,98192.78
2023-07-16T06:33:55.240Z,97927.97
2023-07-16T06:38:58.882Z,98098.34
2023-07-16T06:44:02.467Z,98215.41
2023-07-16T06:49:08.854Z,98210.84
2023-07-16T06:54:13.635Z,98186.16
2023-07-16T06:59:17.125Z,98217.41
2023-07-16T07:04:22.435Z,98101.09
2023-07-16T07:09:26.211Z,98220.72
2023-07-16T07:14:29.734Z,98161.25
2023-07-16T07:19:34.654Z,98207.66
2023-07-16T07:24:38.202Z,98216.44
2023-07-16T07:29:41.732Z,98186.94
2023-07-16T07:34:46.676Z,98220.72
2023-07-16T07:39:53.993Z,98142.13
2023-07-16T07:44:57.738Z,98204.13
2023-07-16T07:50:02.592Z,98225.00
2023-07-16T07:55:06.983Z,98222.81
2023-07-16T08:00:13.025Z,98240.41
2023-07-16T08:05:19.975Z,98189.47
2023-07-16T08:10:23.617Z,98214.09
2023-07-16T08:15:27.089Z,98224.19
2023-07-16T08:20:31.959Z,98237.63
2023-07-16T08:25:35.537Z,98246.09
2023-07-16T08:30:39.091Z,98192.16
2023-07-16T08:35:44.377Z,98017.84
2023-07-16T08:40:50.074Z,98215.16
2023-07-16T08:45:54.376Z,98003.78
2023-07-16T08:51:00.797Z,97976.53
2023-07-16T08:56:07.536Z,98225.28
2023-07-16T09:01:12.085Z,98252.34
2023-07-16T09:06:17.575Z,98112.72
2023-07-16T09:11:23.073Z,98209.72
2023-07-16T09:16:26.642Z,98238.16
2023-07-16T09:21:35.223Z,98086.50
2023-07-16T09:26:39.022Z,98227.25
2023-07-16T09:31:54.593Z,98228.38
2023-07-16T09:37:00.039Z,98249.72
2023-07-16T09:42:04.600Z,98216.91
2023-07-16T09:47:08.113Z,98239.59
2023-07-16T09:52:14.700Z,98186.25
2023-07-16T09:57:19.029Z,98200.41
2023-07-16T10:02:23.725Z,98116.97
2023-07-16T10:07:28.725Z,98215.63
2023-07-16T10:12:32.216Z,98236.63
2023-07-16T10:17:35.848Z,98231.94
2023-07-16T10:22:42.925Z,98208.91
2023-07-16T10:27:47.802Z,98206.09
2023-07-16T10:32:53.619Z,98160.19
2023-07-16T10:38:00.449Z,98263.00
2023-07-16T10:43:04.018Z,98192.34
2023-07-16T10:48:07.741Z,98211.69
2023-07-16T10:53:14.323Z,98230.56
2023-07-16T10:58:17.851Z,98220.91
2023-07-16T11:03:22.053Z,98181.06
2023-07-16T11:08:27.678Z,98173.28
2023-07-16T11:13:33.363Z,97912.50
2023-07-16T11:18:36.968Z,98199.81
2023-07-16T11:23:41.861Z,98206.69
2023-07-16T11:28:45.446Z,98183.19
2023-07-16T11:33:49.038Z,98148.72
2023-07-16T11:38:54.229Z,98042.25
2023-07-16T11:49:29.452Z,98172.94
2023-07-16T11:54:34.478Z,98162.25
2023-07-16T11:59:38.074Z,98155.97
2023-07-16T12:04:41.570Z,98142.59
2023-07-16T12:09:46.417Z,98157.78
2023-07-16T12:14:51.257Z,98108.44
2023-07-16T12:19:54.786Z,98151.53
2023-07-16T12:24:59.687Z,98147.38
2023-07-16T12:30:03.845Z,98115.44
2023-07-16T12:35:07.853Z,98076.84
2023-07-16T12:40:13.184Z,98070.47
2023-07-16T12:45:19.679Z,98138.09
2023-07-16T12:50:23.439Z,98119.50
2023-07-16T12:55:28.432Z,98097.13
2023-07-16T13:00:32.192Z,98107.13
2023-07-16T13:05:39.153Z,97940.31
2023-07-16T13:10:44.306Z,98102.38
2023-07-16T13:15:48.500Z,98121.66
2023-07-16T13:20:52.052Z,98116.38
2023-07-16T13:25:57.272Z,98112.78
2023-07-16T13:31:05.197Z,98074.41
2023-07-16T13:36:08.893Z,98106.75
2023-07-16T13:41:13.879Z,98044.09
2023-07-16T13:46:17.714Z,98119.53
2023-07-16T13:51:21.333Z,98101.84
2023-07-16T13:56:26.243Z,98103.28
2023-07-16T14:01:29.879Z,98074.53
2023-07-16T14:12:02.646Z,98093.63
2023-07-16T14:17:07.272Z,98077.13
2023-07-16T14:22:12.619Z,98085.09
2023-07-16T14:27:18.899Z,98081.72
2023-07-16T14:32:22.578Z,98068.03
2023-07-16T14:37:26.203Z,98018.97
2023-07-16T14:42:32.493Z,97923.16
2023-07-16T14:47:36.179Z,98119.28
2023-07-16T14:52:40.907Z,97960.88
2023-07-16T14:57:48.227Z,98116.22
2023-07-16T15:02:51.943Z,98122.13
2023-07-16T15:07:55.421Z,98082.31
2023-07-16T15:13:00.379Z,98051.69
2023-07-16T15:18:03.937Z,98090.72
2023-07-16T15:23:07.915Z,98108.66
2023-07-16T15:28:13.079Z,98097.97
2023-07-16T15:33:16.510Z,98103.81
2023-07-16T15:38:19.946Z,98088.53
2023-07-16T15:43:27.234Z,98034.56
2023-07-16T15:48:30.971Z,98061.03
2023-07-16T15:53:34.711Z,98080.88
2023-07-16T15:58:40.492Z,98067.00
2023-07-16T16:03:46.537Z,98093.31
2023-07-16T16:08:50.484Z,98092.56
2023-07-16T16:13:55.560Z,98040.00
2023-07-16T16:18:59.409Z,98061.84
2023-07-16T16:24:04.648Z,98090.81
2023-07-16T16:29:12.513Z,98094.25
2023-07-16T16:34:16.517Z,98044.28
2023-07-16T16:39:20.066Z,98085.31
2023-07-16T16:44:24.969Z,97996.00
2023-07-16T16:49:28.476Z,98082.78
2023-07-16T16:54:33.814Z,98081.06
2023-07-16T16:59:38.702Z,98068.03
2023-07-16T17:04:44.737Z,98099.56
2023-07-16T17:09:49.738Z,98118.88
2023-07-16T17:14:57.101Z,98080.78
2023-07-16T17:20:07.391Z,98047.66
2023-07-16T17:25:11.572Z,98104.78
2023-07-16T17:30:17.863Z,98018.75
2023-07-16T17:35:21.986Z,98085.28
2023-07-16T17:40:25.672Z,98097.56
2023-07-16T17:45:30.568Z,98104.81
2023-07-16T17:50:34.189Z,98111.31
2023-07-16T17:55:37.672Z,98131.09
2023-07-16T18:00:42.635Z,98122.84
2023-07-16T18:05:46.072Z,98043.59
2023-07-16T18:10:49.632Z,98036.88
2023-07-16T18:15:54.436Z,98083.22
2023-07-16T18:21:01.072Z,98104.22
2023-07-16T18:26:12.195Z,98090.94
2023-07-16T18:31:17.432Z,98097.53
2023-07-16T18:36:21.404Z,98129.50
2023-07-16T18:41:24.911Z,98130.72
2023-07-16T18:46:29.881Z,98124.38
2023-07-16T18:51:33.630Z,98003.31
2023-07-16T18:56:37.171Z,98121.50
2023-07-16T19:01:42.331Z,98058.78
2023-07-16T19:06:46.048Z,98043.63
2023-07-16T19:11:51.791Z,98006.19
2023-07-16T19:16:57.449Z,98132.44
2023-07-16T19:22:02.369Z,98130.94
2023-07-16T19:27:06.805Z,97956.09
2023-07-16T19:32:11.842Z,98145.59
2023-07-16T19:37:15.676Z,98114.44
2023-07-16T19:42:19.347Z,98079.47
2023-07-16T19:47:24.549Z,97942.06
2023-07-16T19:52:28.209Z,98158.47
2023-07-16T19:57:35.486Z,98175.47
2023-07-16T20:02:40.608Z,98177.13
2023-07-16T20:07:44.274Z,98181.50
2023-07-16T20:12:47.823Z,98167.91
2023-07-16T20:17:52.882Z,98180.47
2023-07-16T20:22:58.007Z,98152.56
2023-07-16T20:28:01.561Z,98156.66
2023-07-16T20:33:06.494Z,98138.19
2023-07-16T20:38:10.126Z,98189.94
2023-07-16T20:43:13.580Z,98143.91
2023-07-16T20:48:19.113Z,98167.19
2023-07-16T20:53:22.612Z,98183.91
2023-07-16T20:58:26.277Z,98187.78
2023-07-16T21:03:32.723Z,98150.66
2023-07-16T21:08:36.411Z,98201.94
2023-07-16T21:13:39.866Z,98206.94
2023-07-16T21:18:45.914Z,98165.22
2023-07-16T21:23:49.560Z,98200.88
2023-07-16T21:28:53.209Z,98181.03
2023-07-16T21:33:58.051Z,98223.09
2023-07-16T21:39:01.720Z,98219.03
2023-07-16T21:44:05.282Z,98214.47
2023-07-16T21:49:10.105Z,98201.72
2023-07-16T21:54:13.563Z,98215.19
2023-07-16T21:59:16.999Z,98155.75
2023-07-16T22:04:21.950Z,98213.88
2023-07-16T22:09:25.682Z,98212.88
2023-07-16T22:14:29.795Z,98173.94
2023-07-16T22:19:34.860Z,98222.72
2023-07-16T22:24:38.539Z,98223.03
2023-07-16T22:29:42.156Z,98225.00
2023-07-16T22:34:47.491Z,98199.66
2023-07-16T22:39:50.930Z,98187.66
2023-07-16T22:44:54.917Z,98229.78
2023-07-16T22:49:59.820Z,98239.69
2023-07-16T22:55:04.546Z,98207.41
2023-07-16T23:00:12.298Z,98182.31
2023-07-16T23:05:17.405Z,98025.75
2023-07-16T23:10:21.258Z,98152.28
2023-07-16T23:15:26.148Z,98249.66
2023-07-16T23:20:30.940Z,98213.59
2023-07-16T23:25:37.928Z,98255.19
2023-07-16T23:30:41.645Z,98167.66
2023-07-16T23:35:46.668Z,98244.81
2023-07-16T23:40:50.118Z,98198.56
2023-07-16T23:45:53.523Z,98239.34
2023-07-16T23:50:58.383Z,98245.34
2023-07-16T23:56:01.746Z,98238.25
